Huvudsida
METAR-TAF:

METAR-TAF

Flygplatser :

Grosseto, Italien

latitud: 42-45N, longitud: 011-04E, höjd: 5 m

Aktuellt väderrapport

Denna rapport gjordes för 46 minuter sedan, klockan 18:55 UTC
Vind 4 kt från nord
Temperatur 7°C
Fuktighet 57%
Tryck 1019 hPa
Sikt 10 km eller mer
Inga moln under 1 500 m eller inga cumulonimbus

METAR: LIRS 281855Z 36004KT CAVOK 07/M01 Q1019 RMK SKC VIS MIN 9999 WIND THR03 01003KT WIND THR21 36006KT BLU

Tid: 20:41 (19:41 UTC)

Väderprognos

Denna rapport gjordes för 2 timmar och 41 minuter sedan, klockan 17:00 UTC
Prognos gäller från 28 kl. 18 UTC till 29 kl. 03 UTC
Vind 7 kt från nordost
Sikt 10 km eller mer
Inga moln under 1 500 m eller inga cumulonimbus

TAF: LIRS 281700Z 2818/2903 05007KT CAVOK

Aktuella väderrapporter och prognoser från 4000 flygplatser (METAR- och TAF-rapporter).

De tillgängliga stationerna syns som gula och röda prickar på kartan.

För musen över prickarna för att se namnen på stationerna.

Klicka sedan för att få väderrapporter och prognoser.

För att ändra kartan: Klicka på de gröna knapparna med ett svart kors på för att zooma in; den gröna knappen med ett streck på för att zooma ut; eller på de gröna pilarna för angränsande kartor.


METAR-TAF: